TimeCDT,TemperatureF,Dew PointF,Humidity,Sea Level PressureIn,VisibilityMPH,Wind Direction,Wind SpeedMPH,Gust SpeedMPH,PrecipitationIn,Events,Conditions,WindDirDegrees,DateUTC
12:15 AM,83.5,67.5,58,29.72,10.0,SW,12.7,19.6,N/A,,Overcast,220,2013-07-19 05:15:00
12:35 AM,83.3,67.5,59,29.72,10.0,SW,12.7,21.9,N/A,,Mostly Cloudy,230,2013-07-19 05:35:00
12:55 AM,83.5,67.5,58,29.70,10.0,SW,15.0,18.4,N/A,,Mostly Cloudy,220,2013-07-19 05:55:00
1:15 AM,83.3,67.5,59,29.69,10.0,SW,12.7,23.0,N/A,,Scattered Clouds,230,2013-07-19 06:15:00
1:35 AM,83.5,67.5,58,29.71,10.0,West,15.0,24.2,N/A,,Mostly Cloudy,270,2013-07-19 06:35:00
1:55 AM,77.9,70.2,77,29.70,10.0,WSW,11.5,18.4,0.12,Rain,Light Rain,250,2013-07-19 06:55:00
2:15 AM,77.4,70.9,80,29.70,10.0,WSW,6.9,-,N/A,,Overcast,250,2013-07-19 07:15:00
2:35 AM,76.5,70.7,82,29.70,10.0,West,8.1,-,N/A,,Mostly Cloudy,260,2013-07-19 07:35:00
2:55 AM,76.1,70.3,82,29.69,10.0,WSW,8.1,-,N/A,,Clear,250,2013-07-19 07:55:00
3:15 AM,76.1,70.2,82,29.69,10.0,WSW,8.1,-,N/A,,Clear,250,2013-07-19 08:15:00
3:35 AM,75.4,70.2,84,29.70,10.0,WSW,5.8,-,N/A,,Clear,250,2013-07-19 08:35:00
3:55 AM,74.8,70.2,85,29.70,10.0,WSW,4.6,-,N/A,,Clear,240,2013-07-19 08:55:00
4:15 AM,73.9,70.2,88,29.70,10.0,SW,4.6,-,N/A,,Clear,230,2013-07-19 09:15:00
4:35 AM,73.4,70.3,90,29.70,10.0,SW,4.6,-,N/A,,Clear,220,2013-07-19 09:35:00
4:55 AM,73.4,70.3,90,29.70,10.0,SSW,5.8,-,N/A,,Clear,210,2013-07-19 09:55:00
5:15 AM,72.7,70.2,92,29.70,10.0,SW,5.8,-,N/A,,Clear,230,2013-07-19 10:15:00
5:35 AM,73.0,70.3,91,29.70,10.0,SW,6.9,-,N/A,,Clear,230,2013-07-19 10:35:00
5:55 AM,73.2,70.2,90,29.71,10.0,WSW,6.9,-,N/A,,Clear,240,2013-07-19 10:55:00
6:15 AM,73.9,70.5,89,29.71,10.0,WSW,8.1,-,N/A,,Clear,240,2013-07-19 11:15:00
6:35 AM,74.7,70.0,85,29.72,10.0,WSW,11.5,-,N/A,,Clear,250,2013-07-19 11:35:00
6:55 AM,75.2,69.1,81,29.73,10.0,West,11.5,-,N/A,,Clear,270,2013-07-19 11:55:00
7:15 AM,75.4,68.5,79,29.73,10.0,West,11.5,17.3,N/A,,Clear,260,2013-07-19 12:15:00
7:35 AM,76.1,67.8,75,29.74,10.0,West,9.2,-,N/A,,Clear,280,2013-07-19 12:35:00
7:55 AM,76.5,66.0,70,29.74,10.0,WNW,16.1,21.9,N/A,,Clear,300,2013-07-19 12:55:00
8:15 AM,76.8,65.3,67,29.75,10.0,WNW,12.7,19.6,N/A,,Clear,290,2013-07-19 13:15:00
8:35 AM,76.8,64.8,66,29.76,10.0,WNW,9.2,-,N/A,,Scattered Clouds,290,2013-07-19 13:35:00
8:55 AM,76.3,64.2,66,29.77,10.0,WNW,12.7,18.4,N/A,,Mostly Cloudy,300,2013-07-19 13:55:00
9:15 AM,76.5,63.5,64,29.78,10.0,NW,12.7,21.9,N/A,,Mostly Cloudy,310,2013-07-19 14:15:00
9:35 AM,77.7,63.3,61,29.78,10.0,NW,13.8,18.4,N/A,,Mostly Cloudy,310,2013-07-19 14:35:00
9:55 AM,77.2,61.5,58,29.79,10.0,North,18.4,25.3,N/A,,Scattered Clouds,350,2013-07-19 14:55:00
10:15 AM,77.4,60.8,57,29.80,10.0,NNW,11.5,19.6,N/A,,Scattered Clouds,330,2013-07-19 15:15:00
10:35 AM,76.8,59.0,54,29.81,10.0,NNW,13.8,19.6,N/A,,Scattered Clouds,330,2013-07-19 15:35:00
10:55 AM,77.4,59.5,54,29.81,10.0,NW,19.6,23.0,N/A,,Scattered Clouds,320,2013-07-19 15:55:00
11:15 AM,78.1,57.9,50,29.82,10.0,NW,12.7,18.4,N/A,,Mostly Cloudy,310,2013-07-19 16:15:00
11:35 AM,77.9,57.9,50,29.83,10.0,NW,11.5,15.0,N/A,,Scattered Clouds,320,2013-07-19 16:35:00
11:55 AM,78.6,57.6,48,29.83,10.0,NNW,10.4,17.3,N/A,,Clear,340,2013-07-19 16:55:00
12:15 PM,79.5,57.2,46,29.83,10.0,North,10.4,16.1,N/A,,Scattered Clouds,10,2013-07-19 17:15:00
12:35 PM,79.2,57.0,46,29.84,10.0,WNW,12.7,19.6,N/A,,Scattered Clouds,300,2013-07-19 17:35:00
12:55 PM,79.2,56.3,45,29.84,10.0,NW,8.1,19.6,N/A,,Scattered Clouds,310,2013-07-19 17:55:00
1:15 PM,78.8,56.3,46,29.85,10.0,NNW,11.5,18.4,N/A,,Scattered Clouds,340,2013-07-19 18:15:00
1:35 PM,79.7,56.7,45,29.84,10.0,NW,12.7,18.4,N/A,,Scattered Clouds,310,2013-07-19 18:35:00
1:55 PM,81.3,55.8,41,29.84,10.0,WNW,11.5,16.1,N/A,,Scattered Clouds,300,2013-07-19 18:55:00
2:15 PM,81.3,55.6,41,29.84,10.0,WNW,9.2,19.6,N/A,,Mostly Cloudy,300,2013-07-19 19:15:00
2:35 PM,81.7,54.5,39,29.84,10.0,WNW,16.1,21.9,N/A,,Scattered Clouds,290,2013-07-19 19:35:00
2:55 PM,82.0,52.9,36,29.84,10.0,NW,12.7,18.4,N/A,,Scattered Clouds,310,2013-07-19 19:55:00
3:15 PM,82.6,54.5,38,29.84,10.0,NNW,12.7,24.2,N/A,,Scattered Clouds,330,2013-07-19 20:15:00
3:35 PM,81.7,56.8,43,29.84,10.0,West,12.7,-,N/A,,Mostly Cloudy,280,2013-07-19 20:35:00
3:55 PM,81.5,56.5,42,29.84,10.0,WNW,16.1,23.0,N/A,,Overcast,300,2013-07-19 20:55:00
4:15 PM,81.0,56.8,44,29.85,10.0,West,12.7,19.6,N/A,,Mostly Cloudy,280,2013-07-19 21:15:00
4:35 PM,82.0,57.0,42,29.85,10.0,WNW,15.0,-,N/A,,Mostly Cloudy,290,2013-07-19 21:35:00
4:55 PM,81.1,55.4,41,29.84,10.0,WNW,12.7,19.6,N/A,,Mostly Cloudy,290,2013-07-19 21:55:00
5:15 PM,81.7,54.5,39,29.84,10.0,NW,12.7,20.7,N/A,,Mostly Cloudy,310,2013-07-19 22:15:00
5:35 PM,79.9,54.3,41,29.84,10.0,NW,12.7,-,N/A,,Scattered Clouds,310,2013-07-19 22:35:00
5:55 PM,80.6,54.9,41,29.84,10.0,WNW,13.8,17.3,N/A,,Mostly Cloudy,290,2013-07-19 22:55:00
6:35 PM,79.9,55.6,43,29.84,10.0,West,11.5,17.3,N/A,,Mostly Cloudy,280,2013-07-19 23:35:00
6:55 PM,79.0,55.4,44,29.84,10.0,WNW,11.5,17.3,N/A,,Scattered Clouds,290,2013-07-19 23:55:00
7:15 PM,78.4,56.3,46,29.84,10.0,WNW,8.1,-,N/A,,Scattered Clouds,290,2013-07-20 00:15:00
7:35 PM,77.5,57.4,50,29.83,10.0,West,6.9,-,N/A,,Clear,280,2013-07-20 00:35:00
7:55 PM,76.3,57.6,52,29.83,10.0,West,4.6,-,N/A,,Clear,280,2013-07-20 00:55:00
8:15 PM,75.0,57.9,55,29.83,10.0,West,4.6,-,N/A,,Clear,270,2013-07-20 01:15:00
8:35 PM,73.0,58.3,60,29.83,10.0,West,4.6,-,N/A,,Clear,270,2013-07-20 01:35:00
8:55 PM,71.8,58.1,62,29.83,10.0,West,4.6,-,N/A,,Clear,270,2013-07-20 01:55:00
9:15 PM,70.9,58.5,65,29.84,10.0,West,4.6,-,N/A,,Clear,270,2013-07-20 02:15:00
9:35 PM,69.4,58.6,68,29.85,10.0,WSW,4.6,-,N/A,,Clear,250,2013-07-20 02:35:00
9:55 PM,69.3,58.6,69,29.85,10.0,WSW,4.6,-,N/A,,Clear,250,2013-07-20 02:55:00
10:15 PM,68.5,58.5,70,29.86,10.0,WSW,5.8,-,N/A,,Clear,250,2013-07-20 03:15:00
10:35 PM,68.5,58.5,70,29.86,10.0,WSW,3.5,-,N/A,,Clear,250,2013-07-20 03:35:00
10:55 PM,67.6,58.6,73,29.86,10.0,West,4.6,-,N/A,,Clear,260,2013-07-20 03:55:00
11:15 PM,68.4,58.6,71,29.86,10.0,WSW,4.6,-,N/A,,Clear,250,2013-07-20 04:15:00
11:35 PM,69.1,59.0,70,29.86,10.0,WSW,5.8,-,N/A,,Mostly Cloudy,250,2013-07-20 04:35:00
11:55 PM,68.4,61.0,77,29.86,10.0,WSW,8.1,-,N/A,Rain,Light Rain,240,2013-07-20 04:55:00